Time;durP1;ratioP1;P1;durP2;ratioP2;P2;SDS_P1;SDS_P2;PMS_P1;PMS_P2;Temp;Humidity;BMP_temperature;BMP_pressure;BME280_temperature;BME280_humidity;BME280_pressure;Samples;Min_cycle;Max_cycle;Signal;HPM_P1;HPM_P2
2021/03/10 00:01:25;;;;;;;19.88;11.68;;;;;;;;;;10409194;27;20495;-64
2021/03/10 00:06:23;;;;;;;16.90;11.75;;;;;;;;;;10420343;27;20072;-63
2021/03/10 00:11:20;;;;;;;16.42;11.80;;;;;;;;;;10413990;27;20077;-63
2021/03/10 00:16:17;;;;;;;17.27;12.73;;;;;;;;;;10416340;27;20035;-64
2021/03/10 00:21:15;;;;;;;19.85;12.65;;;;;;;;;;10418799;27;20070;-64
2021/03/10 00:26:13;;;;;;;22.73;12.40;;;;;;;;;;10411238;27;20076;-63
2021/03/10 00:31:10;;;;;;;17.73;12.93;;;;;;;;;;10421561;27;20083;-64
2021/03/10 00:36:08;;;;;;;21.45;13.23;;;;;;;;;;10407279;27;20078;-64
2021/03/10 00:41:05;;;;;;;20.35;14.45;;;;;;;;;;10419491;27;20101;-63
2021/03/10 00:46:04;;;;;;;29.45;21.52;;;;;;;;;;10414021;27;20050;-63
2021/03/10 00:51:01;;;;;;;23.85;16.33;;;;;;;;;;10414902;27;20072;-63
2021/03/10 00:55:58;;;;;;;24.50;16.75;;;;;;;;;;10417348;27;20070;-64
2021/03/10 01:00:56;;;;;;;23.80;13.52;;;;;;;;;;10409558;27;20080;-63
2021/03/10 01:05:54;;;;;;;16.73;12.38;;;;;;;;;;10407267;27;20062;-63
2021/03/10 01:10:51;;;;;;;12.82;10.68;;;;;;;;;;10419480;27;20474;-63
2021/03/10 01:15:48;;;;;;;17.83;11.48;;;;;;;;;;10411638;27;20484;-63
2021/03/10 01:20:46;;;;;;;11.90;10.60;;;;;;;;;;10414245;27;20317;-64
2021/03/10 01:25:44;;;;;;;14.27;10.52;;;;;;;;;;10417004;27;20503;-63
2021/03/10 01:30:41;;;;;;;21.50;11.95;;;;;;;;;;10409996;27;20075;-63
2021/03/10 01:35:38;;;;;;;14.05;11.00;;;;;;;;;;10418691;27;20091;-63
2021/03/10 01:40:36;;;;;;;16.70;11.00;;;;;;;;;;10406821;27;20066;-63
2021/03/10 01:45:35;;;;;;;19.73;13.27;;;;;;;;;;10416881;27;20084;-63
2021/03/10 01:50:32;;;;;;;21.92;12.52;;;;;;;;;;10411946;27;20478;-63
2021/03/10 01:55:30;;;;;;;18.52;11.88;;;;;;;;;;10413433;27;20442;-63
2021/03/10 02:00:29;;;;;;;14.88;11.27;;;;;;;;;;10417408;27;20431;-63
2021/03/10 02:05:27;;;;;;;13.27;11.75;;;;;;;;;;10417023;27;20060;-63
2021/03/10 02:10:29;;;;;;;17.15;11.25;;;;;;;;;;10425638;27;20471;-63
2021/03/10 02:15:29;;;;;;;19.23;11.50;;;;;;;;;;10416264;27;20072;-63
2021/03/10 02:20:31;;;;;;;16.13;12.73;;;;;;;;;;10424303;27;20081;-63
2021/03/10 02:25:36;;;;;;;16.92;12.68;;;;;;;;;;10416392;27;20075;-63
2021/03/10 02:30:37;;;;;;;15.63;11.82;;;;;;;;;;10420716;27;20072;-63
2021/03/10 02:35:36;;;;;;;15.57;11.80;;;;;;;;;;10419590;27;20080;-63
2021/03/10 02:40:33;;;;;;;18.00;12.77;;;;;;;;;;10421167;27;20073;-63
2021/03/10 02:45:31;;;;;;;23.98;16.02;;;;;;;;;;10414490;27;20091;-63
2021/03/10 02:50:30;;;;;;;13.85;12.43;;;;;;;;;;10424675;27;20542;-63
2021/03/10 02:55:27;;;;;;;20.92;15.15;;;;;;;;;;10411367;27;20062;-63
2021/03/10 03:00:24;;;;;;;18.85;13.02;;;;;;;;;;10423374;27;20068;-63
2021/03/10 03:05:22;;;;;;;15.10;12.13;;;;;;;;;;10416777;27;20076;-63
2021/03/10 03:10:22;;;;;;;15.23;12.00;;;;;;;;;;10419205;27;20048;-63
2021/03/10 03:15:20;;;;;;;15.93;13.02;;;;;;;;;;10418373;27;20499;-63
2021/03/10 03:20:19;;;;;;;16.05;12.77;;;;;;;;;;10416043;27;20099;-63
2021/03/10 03:25:17;;;;;;;12.90;11.40;;;;;;;;;;10421558;27;20058;-63
2021/03/10 03:30:15;;;;;;;12.30;11.10;;;;;;;;;;10412441;27;20070;-63
2021/03/10 03:35:15;;;;;;;11.98;10.65;;;;;;;;;;10409955;27;20085;-63
2021/03/10 03:40:13;;;;;;;12.23;10.93;;;;;;;;;;10408359;27;20046;-63
2021/03/10 03:45:11;;;;;;;13.02;11.50;;;;;;;;;;10404111;27;20079;-63
2021/03/10 03:50:11;;;;;;;12.32;10.98;;;;;;;;;;10414044;27;20078;-63
2021/03/10 03:55:09;;;;;;;12.48;10.27;;;;;;;;;;10418875;27;20544;-63
2021/03/10 04:00:07;;;;;;;14.00;11.35;;;;;;;;;;10415841;27;20077;-63
2021/03/10 04:05:09;;;;;;;9.75;8.63;;;;;;;;;;10418665;27;20076;-62
2021/03/10 04:10:07;;;;;;;12.73;10.15;;;;;;;;;;10416342;27;20081;-61
2021/03/10 04:15:05;;;;;;;15.80;12.18;;;;;;;;;;10413999;27;20496;-61
2021/03/10 04:20:05;;;;;;;18.08;11.90;;;;;;;;;;10419774;27;20054;-61
2021/03/10 04:25:03;;;;;;;13.57;10.73;;;;;;;;;;10412675;27;20390;-61
2021/03/10 04:30:02;;;;;;;10.15;9.13;;;;;;;;;;10420877;27;20079;-61
2021/03/10 04:35:00;;;;;;;9.35;8.45;;;;;;;;;;10408528;27;20100;-62
2021/03/10 04:39:57;;;;;;;9.30;8.18;;;;;;;;;;10418253;27;20064;-62
2021/03/10 04:44:55;;;;;;;10.85;8.43;;;;;;;;;;10392125;27;20501;-63
2021/03/10 04:49:53;;;;;;;8.32;7.53;;;;;;;;;;10411636;27;20074;-63
2021/03/10 04:54:52;;;;;;;9.32;7.75;;;;;;;;;;10412790;27;20076;-63
2021/03/10 04:59:49;;;;;;;9.05;8.15;;;;;;;;;;10415401;27;20062;-62
2021/03/10 05:04:47;;;;;;;10.20;9.20;;;;;;;;;;10409896;27;20083;-63
2021/03/10 05:09:45;;;;;;;8.57;7.68;;;;;;;;;;10419896;27;20060;-63
2021/03/10 05:14:43;;;;;;;7.68;6.90;;;;;;;;;;10406717;27;20070;-63
2021/03/10 05:19:40;;;;;;;8.82;7.93;;;;;;;;;;10417921;27;20072;-63
2021/03/10 05:24:37;;;;;;;8.00;7.30;;;;;;;;;;10413255;27;20066;-64
2021/03/10 05:29:35;;;;;;;11.13;8.63;;;;;;;;;;10412753;27;20060;-64
2021/03/10 05:34:33;;;;;;;9.93;8.88;;;;;;;;;;10417139;27;20092;-63
2021/03/10 05:39:31;;;;;;;10.75;9.65;;;;;;;;;;10416322;27;20044;-64
2021/03/10 05:44:28;;;;;;;10.00;9.00;;;;;;;;;;10427710;27;20071;-64
2021/03/10 05:49:26;;;;;;;12.45;9.80;;;;;;;;;;10416832;27;20085;-63
2021/03/10 05:54:26;;;;;;;10.00;9.05;;;;;;;;;;10423953;27;20076;-63
2021/03/10 05:59:23;;;;;;;10.45;9.45;;;;;;;;;;10419740;27;20490;-64
2021/03/10 06:04:20;;;;;;;14.80;11.85;;;;;;;;;;10419171;27;20469;-64
2021/03/10 06:09:19;;;;;;;16.50;12.82;;;;;;;;;;10422356;27;20505;-63
2021/03/10 06:14:16;;;;;;;12.98;11.55;;;;;;;;;;10414784;27;20072;-63
2021/03/10 06:19:14;;;;;;;16.85;12.95;;;;;;;;;;10426118;27;20087;-63
2021/03/10 06:24:11;;;;;;;13.82;11.60;;;;;;;;;;10412950;27;20571;-63
2021/03/10 06:29:15;;;;;;;13.50;12.00;;;;;;;;;;10424360;27;20064;-63
2021/03/10 06:34:13;;;;;;;11.85;10.63;;;;;;;;;;10401812;27;20482;-63
2021/03/10 06:39:11;;;;;;;12.30;10.73;;;;;;;;;;10413705;27;20076;-63
2021/03/10 06:44:16;;;;;;;13.48;11.27;;;;;;;;;;10418463;27;20070;-63
2021/03/10 06:49:14;;;;;;;13.57;12.17;;;;;;;;;;10363863;27;20524;-64
2021/03/10 06:54:15;;;;;;;17.42;13.68;;;;;;;;;;10359346;27;20754;-62
2021/03/10 06:59:12;;;;;;;13.23;11.35;;;;;;;;;;10352826;27;20076;-63
2021/03/10 07:04:12;;;;;;;15.32;12.60;;;;;;;;;;10387614;27;20069;-63
2021/03/10 07:09:12;;;;;;;15.07;13.48;;;;;;;;;;10420372;27;20449;-64
2021/03/10 07:14:10;;;;;;;18.52;16.58;;;;;;;;;;10418403;27;20453;-63
2021/03/10 07:19:09;;;;;;;17.85;16.13;;;;;;;;;;10416363;27;20072;-63
2021/03/10 07:24:12;;;;;;;18.80;16.80;;;;;;;;;;10422315;27;20065;-64
2021/03/10 07:29:11;;;;;;;28.10;19.75;;;;;;;;;;10417462;27;20429;-65
2021/03/10 07:34:09;;;;;;;22.33;18.05;;;;;;;;;;10420223;27;20081;-63
2021/03/10 07:39:20;;;;;;;26.40;17.05;;;;;;;;;;10413676;27;20060;-64
2021/03/10 07:44:18;;;;;;;15.35;13.70;;;;;;;;;;10414666;27;20070;-64
2021/03/10 07:49:19;;;;;;;14.00;11.23;;;;;;;;;;10417936;27;20087;-64
2021/03/10 07:54:21;;;;;;;12.32;11.02;;;;;;;;;;10416377;27;20103;-64
2021/03/10 07:59:19;;;;;;;14.85;13.10;;;;;;;;;;10418992;27;20060;-64
2021/03/10 08:04:17;;;;;;;12.35;11.05;;;;;;;;;;10414891;27;20058;-64
2021/03/10 08:09:15;;;;;;;14.95;11.98;;;;;;;;;;10413497;27;20068;-62
2021/03/10 08:14:16;;;;;;;10.98;9.80;;;;;;;;;;10419486;27;20070;-62
2021/03/10 08:19:13;;;;;;;13.65;10.38;;;;;;;;;;10412614;27;20690;-62
2021/03/10 08:24:11;;;;;;;18.10;13.70;;;;;;;;;;10420283;27;20483;-64
2021/03/10 08:29:09;;;;;;;15.18;11.43;;;;;;;;;;10378002;27;20075;-63
2021/03/10 08:34:07;;;;;;;14.88;12.15;;;;;;;;;;10361675;27;20503;-64
2021/03/10 08:39:08;;;;;;;19.23;15.68;;;;;;;;;;10410592;27;20474;-63
2021/03/10 08:44:05;;;;;;;25.58;19.50;;;;;;;;;;10384098;27;20072;-63
2021/03/10 08:49:03;;;;;;;22.33;17.08;;;;;;;;;;10405265;27;20507;-63
2021/03/10 08:54:10;;;;;;;22.23;15.25;;;;;;;;;;10401857;27;20549;-63
2021/03/10 08:59:10;;;;;;;32.78;20.98;;;;;;;;;;10412213;27;20491;-64
2021/03/10 09:04:07;;;;;;;43.03;25.77;;;;;;;;;;10418953;27;20076;-64
2021/03/10 09:09:05;;;;;;;41.95;24.42;;;;;;;;;;10407065;27;20427;-63
2021/03/10 09:14:22;;;;;;;62.38;37.55;;;;;;;;;;10423806;27;20080;-63
2021/03/10 09:19:32;;;;;;;45.85;30.02;;;;;;;;;;10367549;27;20080;-63
2021/03/10 09:24:30;;;;;;;50.20;35.28;;;;;;;;;;10343067;27;20083;-63
2021/03/10 09:44:46;;;;;;;50.00;26.10;;;;;;;;;;10519178;27;20370;-62
2021/03/10 09:49:47;;;;;;;55.60;26.40;;;;;;;;;;10464458;27;20058;-63
2021/03/10 09:54:49;;;;;;;47.53;24.77;;;;;;;;;;10480221;27;20049;-63
2021/03/10 09:59:48;;;;;;;17.63;13.73;;;;;;;;;;10476697;27;20081;-64
2021/03/10 10:04:57;;;;;;;16.45;14.20;;;;;;;;;;10482330;27;20042;-63
2021/03/10 10:09:55;;;;;;;19.17;14.88;;;;;;;;;;10466339;27;20435;-63
2021/03/10 10:15:14;;;;;;;38.70;25.65;;;;;;;;;;10414821;27;20043;-63
2021/03/10 10:20:13;;;;;;;23.52;17.80;;;;;;;;;;10414966;27;20043;-62
2021/03/10 10:25:12;;;;;;;22.27;15.63;;;;;;;;;;10432112;27;20058;-62
2021/03/10 10:30:15;;;;;;;18.48;12.85;;;;;;;;;;10421859;27;20045;-62
2021/03/10 10:35:14;;;;;;;12.13;10.02;;;;;;;;;;10491825;27;20070;-62
2021/03/10 10:40:13;;;;;;;17.15;10.45;;;;;;;;;;10516459;27;20105;-62
2021/03/10 10:45:15;;;;;;;15.07;10.43;;;;;;;;;;10475058;27;20067;-63
2021/03/10 10:50:14;;;;;;;11.13;9.77;;;;;;;;;;10427333;27;20043;-63
2021/03/10 10:55:17;;;;;;;13.30;10.88;;;;;;;;;;10427332;27;20475;-62
2021/03/10 11:00:18;;;;;;;14.75;10.07;;;;;;;;;;10426949;27;20062;-62
2021/03/10 11:05:16;;;;;;;15.15;12.32;;;;;;;;;;10444477;27;20051;-63
2021/03/10 11:10:18;;;;;;;11.43;8.50;;;;;;;;;;10426859;27;20055;-63
2021/03/10 11:15:22;;;;;;;11.65;7.85;;;;;;;;;;10435444;27;20086;-63
2021/03/10 11:20:31;;;;;;;17.00;11.02;;;;;;;;;;10386051;27;20098;-63
2021/03/10 11:25:29;;;;;;;21.95;14.13;;;;;;;;;;10470305;27;20062;-63
2021/03/10 11:30:31;;;;;;;24.98;16.83;;;;;;;;;;10432555;27;20071;-63
2021/03/10 11:35:28;;;;;;;22.80;16.10;;;;;;;;;;10448701;27;20597;-63
2021/03/10 11:40:30;;;;;;;24.42;16.52;;;;;;;;;;10417219;27;20094;-62
2021/03/10 11:45:27;;;;;;;19.80;12.23;;;;;;;;;;10359817;28;20055;-61
2021/03/10 11:50:26;;;;;;;18.45;13.82;;;;;;;;;;10360206;28;20492;-61
2021/03/10 11:55:24;;;;;;;8.52;7.47;;;;;;;;;;10358902;28;20076;-62
2021/03/10 12:00:22;;;;;;;10.88;8.57;;;;;;;;;;10358944;28;20430;-62
2021/03/10 12:05:28;;;;;;;10.82;9.68;;;;;;;;;;10359534;28;20050;-62
2021/03/10 12:10:25;;;;;;;15.85;10.80;;;;;;;;;;10351724;28;20087;-63
2021/03/10 12:15:23;;;;;;;9.60;7.28;;;;;;;;;;10359379;28;20044;-62
2021/03/10 12:20:20;;;;;;;10.32;8.13;;;;;;;;;;10359511;28;20071;-62
2021/03/10 12:25:18;;;;;;;10.50;7.80;;;;;;;;;;10359375;28;20043;-62
2021/03/10 12:30:16;;;;;;;15.52;10.93;;;;;;;;;;10359145;28;20075;-62
2021/03/10 12:35:14;;;;;;;12.75;9.80;;;;;;;;;;10356806;28;20040;-63
2021/03/10 12:40:12;;;;;;;24.33;15.57;;;;;;;;;;10367536;27;20516;-62
2021/03/10 12:45:11;;;;;;;37.88;19.95;;;;;;;;;;10468214;27;20503;-62
2021/03/10 12:50:09;;;;;;;120.25;50.03;;;;;;;;;;10454246;27;20043;-62
2021/03/10 12:55:07;;;;;;;48.58;26.70;;;;;;;;;;10470773;27;20068;-62
2021/03/10 13:00:07;;;;;;;46.17;24.00;;;;;;;;;;10452638;27;20468;-62
2021/03/10 13:05:07;;;;;;;82.60;34.55;;;;;;;;;;10448262;27;20070;-62
2021/03/10 13:10:05;;;;;;;46.17;22.88;;;;;;;;;;10461949;27;20073;-62
2021/03/10 13:15:03;;;;;;;82.95;39.42;;;;;;;;;;10452078;27;20082;-62
2021/03/10 13:20:01;;;;;;;35.05;24.77;;;;;;;;;;10447617;27;20063;-62
2021/03/10 13:24:59;;;;;;;45.20;29.83;;;;;;;;;;10437212;27;20556;-62
2021/03/10 13:30:00;;;;;;;35.13;23.38;;;;;;;;;;10467868;27;20483;-62
2021/03/10 13:34:57;;;;;;;26.10;15.88;;;;;;;;;;10482505;27;20082;-62
2021/03/10 13:39:54;;;;;;;32.47;24.15;;;;;;;;;;10481555;27;20179;-61
2021/03/10 13:44:52;;;;;;;22.00;14.05;;;;;;;;;;10482280;27;20085;-62
2021/03/10 13:49:50;;;;;;;32.90;22.67;;;;;;;;;;10482154;27;20077;-62
2021/03/10 13:54:49;;;;;;;32.72;23.08;;;;;;;;;;10482126;27;20046;-62
2021/03/10 13:59:50;;;;;;;38.17;25.42;;;;;;;;;;10482050;27;20043;-62
2021/03/10 14:04:49;;;;;;;19.13;15.05;;;;;;;;;;10480890;27;20078;-62
2021/03/10 14:09:46;;;;;;;17.58;13.77;;;;;;;;;;10469081;27;20077;-62
2021/03/10 14:14:45;;;;;;;20.92;13.80;;;;;;;;;;10451350;27;20071;-62
2021/03/10 14:19:42;;;;;;;21.25;16.33;;;;;;;;;;10458074;27;20063;-62
2021/03/10 14:24:41;;;;;;;18.42;15.05;;;;;;;;;;10472713;27;20078;-62
2021/03/10 14:29:38;;;;;;;17.60;11.90;;;;;;;;;;10447037;27;20039;-63
2021/03/10 14:34:35;;;;;;;21.80;15.05;;;;;;;;;;10473871;27;20066;-63
2021/03/10 14:39:33;;;;;;;36.95;28.23;;;;;;;;;;10483872;27;20078;-63
2021/03/10 14:44:31;;;;;;;36.60;26.33;;;;;;;;;;10483689;27;20086;-63
2021/03/10 14:49:29;;;;;;;16.17;13.43;;;;;;;;;;10486669;27;20073;-63
2021/03/10 14:54:27;;;;;;;19.63;14.68;;;;;;;;;;10488216;27;20045;-63
2021/03/10 14:59:24;;;;;;;30.65;21.80;;;;;;;;;;10487739;27;20069;-63
2021/03/10 15:04:22;;;;;;;54.03;36.53;;;;;;;;;;10487473;27;20082;-63
2021/03/10 15:09:20;;;;;;;29.77;22.92;;;;;;;;;;10487267;27;20062;-63
2021/03/10 15:14:17;;;;;;;27.60;21.17;;;;;;;;;;10487599;27;20046;-63
2021/03/10 15:19:14;;;;;;;31.92;20.48;;;;;;;;;;10487178;27;20049;-63
2021/03/10 15:24:14;;;;;;;22.65;16.58;;;;;;;;;;10485621;27;20511;-63
2021/03/10 15:29:11;;;;;;;39.47;22.60;;;;;;;;;;10487509;27;20483;-63
2021/03/10 15:34:09;;;;;;;23.95;17.85;;;;;;;;;;10486995;27;20412;-63
2021/03/10 15:39:06;;;;;;;22.98;15.60;;;;;;;;;;10486579;27;20458;-63
2021/03/10 15:44:05;;;;;;;36.53;26.33;;;;;;;;;;10485347;27;20086;-62
2021/03/10 15:49:03;;;;;;;27.08;21.20;;;;;;;;;;10486577;27;20073;-64
2021/03/10 15:54:00;;;;;;;34.03;26.20;;;;;;;;;;10486272;27;20067;-64
2021/03/10 15:58:58;;;;;;;33.40;28.13;;;;;;;;;;10485923;27;20057;-64
2021/03/10 16:03:56;;;;;;;21.88;18.23;;;;;;;;;;10485866;27;20074;-62
2021/03/10 16:08:53;;;;;;;25.67;20.90;;;;;;;;;;10485340;27;20089;-62
2021/03/10 16:13:51;;;;;;;27.25;22.20;;;;;;;;;;10485270;27;20043;-63
2021/03/10 16:18:48;;;;;;;34.90;27.05;;;;;;;;;;10455466;27;20070;-63
2021/03/10 16:23:47;;;;;;;43.55;32.53;;;;;;;;;;10458311;27;20097;-62
2021/03/10 16:28:44;;;;;;;35.05;25.15;;;;;;;;;;10484526;27;20047;-62
2021/03/10 16:33:41;;;;;;;31.98;24.65;;;;;;;;;;10484839;27;20042;-61
2021/03/10 16:38:39;;;;;;;32.30;24.40;;;;;;;;;;10484444;27;20054;-63
2021/03/10 16:43:37;;;;;;;32.40;24.27;;;;;;;;;;10481787;27;20572;-62
2021/03/10 16:48:34;;;;;;;40.47;30.15;;;;;;;;;;10483380;27;20151;-63
2021/03/10 16:53:32;;;;;;;48.47;35.83;;;;;;;;;;10483943;27;20039;-63
2021/03/10 16:58:30;;;;;;;19.65;17.60;;;;;;;;;;10482859;27;20046;-63
2021/03/10 17:03:28;;;;;;;21.08;17.50;;;;;;;;;;10484224;27;20070;-63
2021/03/10 17:08:26;;;;;;;20.80;17.60;;;;;;;;;;10483090;27;20042;-57
2021/03/10 17:13:23;;;;;;;40.15;25.73;;;;;;;;;;10464340;27;20518;-57
2021/03/10 17:18:21;;;;;;;47.58;26.90;;;;;;;;;;10483238;27;20038;-57
2021/03/10 17:23:21;;;;;;;28.42;23.63;;;;;;;;;;10462827;27;20144;-51
2021/03/10 17:28:18;;;;;;;25.23;20.30;;;;;;;;;;10450419;27;20553;-58
2021/03/10 17:33:16;;;;;;;32.15;25.48;;;;;;;;;;10483479;27;20410;-57
2021/03/10 17:38:14;;;;;;;18.90;16.70;;;;;;;;;;10483117;27;20046;-56
2021/03/10 17:43:12;;;;;;;27.45;17.88;;;;;;;;;;10480224;27;20082;-57
2021/03/10 17:48:10;;;;;;;20.23;16.52;;;;;;;;;;10483028;27;20049;-57
2021/03/10 17:53:08;;;;;;;19.65;15.52;;;;;;;;;;10459829;27;20058;-56
2021/03/10 17:58:06;;;;;;;27.85;20.35;;;;;;;;;;10445662;27;20085;-56
2021/03/10 18:03:06;;;;;;;32.55;20.48;;;;;;;;;;10448177;27;20086;-57
2021/03/10 18:08:04;;;;;;;43.42;25.75;;;;;;;;;;10448170;27;20423;-57
2021/03/10 18:13:02;;;;;;;51.15;27.83;;;;;;;;;;10448214;27;20047;-57
2021/03/10 18:17:59;;;;;;;56.38;33.67;;;;;;;;;;10448397;27;20044;-60
2021/03/10 18:22:57;;;;;;;40.40;23.70;;;;;;;;;;10455787;27;20070;-58
2021/03/10 18:27:55;;;;;;;36.42;23.42;;;;;;;;;;10458193;27;20081;-58
2021/03/10 18:32:52;;;;;;;28.45;16.75;;;;;;;;;;10471938;27;20580;-59
2021/03/10 18:37:52;;;;;;;24.02;15.30;;;;;;;;;;10472165;27;20070;-59
2021/03/10 18:42:51;;;;;;;32.72;19.92;;;;;;;;;;10463887;27;20507;-59
2021/03/10 18:47:49;;;;;;;30.92;24.27;;;;;;;;;;10471114;27;20081;-58
2021/03/10 18:52:48;;;;;;;19.05;16.20;;;;;;;;;;10445935;27;20075;-59
2021/03/10 18:57:46;;;;;;;16.95;12.55;;;;;;;;;;10448548;27;20043;-57
2021/03/10 19:02:45;;;;;;;30.13;18.05;;;;;;;;;;10460786;27;20075;-56
2021/03/10 19:07:42;;;;;;;22.20;13.55;;;;;;;;;;10473197;27;20047;-55
2021/03/10 19:12:40;;;;;;;22.70;16.23;;;;;;;;;;10448857;27;20067;-56
2021/03/10 19:17:38;;;;;;;16.75;13.32;;;;;;;;;;10460445;27;20070;-51
2021/03/10 19:22:37;;;;;;;23.17;14.90;;;;;;;;;;10482233;27;20077;-56
2021/03/10 19:27:34;;;;;;;24.90;17.13;;;;;;;;;;10463780;27;20526;-53
2021/03/10 19:32:32;;;;;;;20.65;16.40;;;;;;;;;;10455856;27;20455;-55
2021/03/10 19:37:29;;;;;;;17.77;13.77;;;;;;;;;;10443930;27;20055;-56
2021/03/10 19:42:28;;;;;;;15.20;11.93;;;;;;;;;;10442929;27;20090;-58
2021/03/10 19:47:29;;;;;;;22.33;15.88;;;;;;;;;;10444362;27;20500;-58
2021/03/10 19:52:40;;;;;;;20.38;14.82;;;;;;;;;;10438422;27;20079;-58
2021/03/10 19:57:38;;;;;;;15.55;11.18;;;;;;;;;;10427138;27;20063;-60
2021/03/10 20:02:36;;;;;;;17.77;13.00;;;;;;;;;;10443405;27;20079;-59
2021/03/10 20:07:33;;;;;;;27.00;16.30;;;;;;;;;;10484624;27;20070;-57
2021/03/10 20:12:33;;;;;;;29.85;20.05;;;;;;;;;;10457572;27;20082;-55
2021/03/10 20:17:32;;;;;;;23.85;14.98;;;;;;;;;;10441995;27;20074;-58
2021/03/10 20:22:29;;;;;;;17.17;13.15;;;;;;;;;;10442763;27;20079;-57
2021/03/10 20:27:27;;;;;;;15.82;12.63;;;;;;;;;;10442358;27;20408;-57
2021/03/10 20:32:24;;;;;;;10.68;9.57;;;;;;;;;;10460148;27;20066;-59
2021/03/10 20:37:23;;;;;;;17.77;12.13;;;;;;;;;;10444572;27;20090;-55
2021/03/10 20:42:23;;;;;;;13.40;10.13;;;;;;;;;;10461703;27;20082;-55
2021/03/10 20:47:20;;;;;;;13.40;10.38;;;;;;;;;;10484632;27;20039;-58
2021/03/10 20:52:18;;;;;;;11.90;9.52;;;;;;;;;;10454066;27;20082;-58
2021/03/10 20:57:16;;;;;;;11.18;9.70;;;;;;;;;;10451069;27;20063;-56
2021/03/10 21:02:13;;;;;;;10.43;9.38;;;;;;;;;;10433561;27;20526;-56
2021/03/10 21:07:11;;;;;;;13.48;9.90;;;;;;;;;;10462643;27;20043;-56
2021/03/10 21:12:09;;;;;;;13.90;10.82;;;;;;;;;;10458746;27;20062;-57
2021/03/10 21:17:07;;;;;;;23.77;16.40;;;;;;;;;;10452556;27;20085;-58
2021/03/10 21:22:05;;;;;;;11.05;9.93;;;;;;;;;;10462478;27;20070;-57
2021/03/10 21:27:02;;;;;;;10.88;8.88;;;;;;;;;;10466189;27;20058;-57
2021/03/10 21:32:02;;;;;;;11.40;8.77;;;;;;;;;;10441081;27;20058;-57
2021/03/10 21:37:00;;;;;;;11.48;9.43;;;;;;;;;;10450268;27;20059;-57
2021/03/10 21:41:58;;;;;;;14.18;9.15;;;;;;;;;;10464429;27;20089;-54
2021/03/10 21:46:55;;;;;;;12.77;9.48;;;;;;;;;;10464773;27;20074;-59
2021/03/10 21:51:53;;;;;;;12.82;9.57;;;;;;;;;;10451459;27;20070;-56
2021/03/10 21:56:52;;;;;;;12.48;9.80;;;;;;;;;;10459442;27;20124;-56
2021/03/10 22:01:50;;;;;;;16.38;11.70;;;;;;;;;;10458771;27;20054;-54
2021/03/10 22:06:49;;;;;;;15.02;11.02;;;;;;;;;;10444731;27;20078;-62
2021/03/10 22:11:46;;;;;;;9.20;8.10;;;;;;;;;;10451400;27;20078;-64
2021/03/10 22:16:45;;;;;;;10.40;8.65;;;;;;;;;;10449571;27;20063;-64
2021/03/10 22:21:42;;;;;;;11.68;9.80;;;;;;;;;;10456887;27;20066;-64
2021/03/10 22:26:40;;;;;;;12.38;9.65;;;;;;;;;;10463364;27;20078;-63
2021/03/10 22:31:37;;;;;;;11.02;9.52;;;;;;;;;;10440859;27;20075;-63
2021/03/10 22:36:36;;;;;;;12.20;10.40;;;;;;;;;;10456777;27;20048;-64
2021/03/10 22:41:34;;;;;;;10.82;9.15;;;;;;;;;;10444856;27;20503;-64
2021/03/10 22:46:31;;;;;;;10.57;9.48;;;;;;;;;;10437056;27;20055;-64
2021/03/10 22:51:35;;;;;;;12.82;10.63;;;;;;;;;;10487632;27;20101;-64
2021/03/10 22:56:33;;;;;;;13.75;10.55;;;;;;;;;;10487978;27;20057;-63
2021/03/10 23:01:31;;;;;;;11.40;10.27;;;;;;;;;;10488157;27;20058;-64
2021/03/10 23:06:31;;;;;;;13.85;9.85;;;;;;;;;;10488310;27;20073;-63
2021/03/10 23:11:29;;;;;;;11.43;10.23;;;;;;;;;;10487785;27;20046;-63
2021/03/10 23:16:27;;;;;;;11.98;10.75;;;;;;;;;;10487102;27;20304;-64
2021/03/10 23:21:25;;;;;;;13.52;11.02;;;;;;;;;;10473085;27;20047;-64
2021/03/10 23:26:23;;;;;;;12.65;10.63;;;;;;;;;;10465565;27;20097;-63
2021/03/10 23:31:20;;;;;;;12.48;10.52;;;;;;;;;;10474088;27;20070;-64
2021/03/10 23:36:19;;;;;;;11.77;9.73;;;;;;;;;;10444792;27;20035;-64
2021/03/10 23:41:16;;;;;;;12.27;9.68;;;;;;;;;;10444542;27;20507;-64
2021/03/10 23:46:14;;;;;;;11.02;9.88;;;;;;;;;;10425113;27;20054;-63
2021/03/10 23:51:11;;;;;;;10.65;9.55;;;;;;;;;;10486609;27;20062;-62
2021/03/10 23:56:09;;;;;;;11.98;10.70;;;;;;;;;;10485679;27;20058;-64
